Time;durP1;ratioP1;P1;durP2;ratioP2;P2;SDS_P1;SDS_P2;PMS_P1;PMS_P2;Temp;Humidity;BMP_temperature;BMP_pressure;BME280_temperature;BME280_humidity;BME280_pressure;Samples;Min_cycle;Max_cycle;Signal;HPM_P1;HPM_P2
2021/07/02 00:01:23;;;;;;;15.13;4.15;;;15.00;99.90;;;;;;4997961;28;20030;-75
2021/07/02 00:03:49;;;;;;;10.60;4.18;;;15.00;99.90;;;;;;5015526;28;20080;-75
2021/07/02 00:06:15;;;;;;;14.38;4.57;;;15.00;99.90;;;;;;5015861;28;20022;-76
2021/07/02 00:08:40;;;;;;;11.55;4.32;;;15.00;99.90;;;;;;5016024;28;20433;-75
2021/07/02 00:11:06;;;;;;;11.73;4.03;;;15.00;99.90;;;;;;5015476;28;20026;-76
2021/07/02 00:13:31;;;;;;;26.65;4.68;;;16.40;99.90;;;;;;5015731;28;20031;-75
2021/07/02 00:15:57;;;;;;;13.93;4.43;;;15.00;99.90;;;;;;5015395;28;20029;-75
2021/07/02 00:18:22;;;;;;;14.38;3.70;;;15.00;99.90;;;;;;5015613;28;20022;-75
2021/07/02 00:20:48;;;;;;;13.23;4.28;;;15.00;99.90;;;;;;5015168;28;20037;-75
2021/07/02 00:23:14;;;;;;;13.75;4.32;;;15.00;99.90;;;;;;4997708;28;20018;-74
2021/07/02 00:25:39;;;;;;;10.95;3.88;;;15.10;99.90;;;;;;5015081;28;20066;-74
2021/07/02 00:28:06;;;;;;;13.57;3.85;;;15.00;99.90;;;;;;5015063;28;20149;-74
2021/07/02 00:30:35;;;;;;;13.15;4.88;;;15.00;99.90;;;;;;5015269;28;20021;-74
2021/07/02 00:33:00;;;;;;;16.35;4.25;;;15.00;99.90;;;;;;5015334;28;20119;-74
2021/07/02 00:35:26;;;;;;;12.20;3.65;;;15.00;99.90;;;;;;5014853;28;20410;-74
2021/07/02 00:37:52;;;;;;;14.75;4.07;;;15.00;99.90;;;;;;4997371;28;20072;-74
2021/07/02 00:40:17;;;;;;;11.05;4.45;;;15.00;99.90;;;;;;5014840;28;20384;-74
2021/07/02 00:42:43;;;;;;;15.90;3.85;;;15.00;99.90;;;;;;5014871;28;20025;-73
2021/07/02 00:45:09;;;;;;;9.98;4.55;;;14.90;99.90;;;;;;5015347;28;20038;-74
2021/07/02 00:47:35;;;;;;;12.50;4.45;;;14.90;99.90;;;;;;5014930;28;20022;-76
2021/07/02 00:50:01;;;;;;;10.93;3.67;;;14.90;99.90;;;;;;4997225;28;20076;-76
2021/07/02 00:52:26;;;;;;;12.20;4.10;;;14.90;99.90;;;;;;5014391;28;20364;-76
2021/07/02 00:54:53;;;;;;;10.80;4.53;;;14.90;99.90;;;;;;5015017;28;20025;-76
2021/07/02 00:57:18;;;;;;;7.50;3.92;;;14.90;99.90;;;;;;5014734;28;20030;-76
2021/07/02 00:59:44;;;;;;;15.27;4.63;;;14.90;99.90;;;;;;5014493;28;20022;-76
2021/07/02 01:02:10;;;;;;;11.95;3.90;;;14.90;99.90;;;;;;4996839;28;20421;-76
2021/07/02 01:04:35;;;;;;;9.52;3.22;;;15.00;99.90;;;;;;4996897;28;20030;-76
2021/07/02 01:07:03;;;;;;;9.13;3.97;;;14.90;99.90;;;;;;5014705;28;20032;-77
2021/07/02 01:09:29;;;;;;;11.55;3.30;;;14.90;99.90;;;;;;5014983;28;20026;-76
2021/07/02 01:11:55;;;;;;;13.25;4.05;;;14.90;99.90;;;;;;5015008;28;20030;-77
2021/07/02 01:14:23;;;;;;;13.18;4.00;;;14.90;99.90;;;;;;4997062;28;20040;-77
2021/07/02 01:16:48;;;;;;;9.97;3.63;;;14.90;99.90;;;;;;5014762;28;20018;-76
2021/07/02 01:19:14;;;;;;;14.50;4.57;;;14.90;99.90;;;;;;4996720;28;20340;-76
2021/07/02 01:21:40;;;;;;;16.15;4.35;;;14.90;99.90;;;;;;5014252;28;20432;-76
2021/07/02 01:24:06;;;;;;;9.90;3.80;;;14.90;99.90;;;;;;5014711;28;20060;-76
2021/07/02 01:26:32;;;;;;;10.32;3.00;;;14.90;99.90;;;;;;5014082;28;20066;-76
2021/07/02 01:28:59;;;;;;;13.60;3.55;;;15.00;99.90;;;;;;4996400;28;20029;-76
2021/07/02 01:31:25;;;;;;;12.38;3.70;;;15.00;99.90;;;;;;5014636;28;20498;-76
2021/07/02 01:33:51;;;;;;;15.77;4.68;;;15.00;99.90;;;;;;5013935;28;20487;-76
2021/07/02 01:36:22;;;;;;;15.60;3.67;;;15.00;99.90;;;;;;4995931;28;20084;-76
2021/07/02 01:38:49;;;;;;;15.43;4.70;;;15.00;99.90;;;;;;4996360;28;20022;-76
2021/07/02 01:41:15;;;;;;;11.43;3.60;;;15.00;99.90;;;;;;5014271;28;20375;-76
2021/07/02 01:43:41;;;;;;;13.05;4.10;;;15.00;99.90;;;;;;4996217;28;20022;-76
2021/07/02 01:46:06;;;;;;;14.77;4.03;;;15.00;99.90;;;;;;4996224;28;20476;-76
2021/07/02 01:48:32;;;;;;;11.13;3.42;;;15.00;99.90;;;;;;5014398;28;20026;-76
2021/07/02 01:50:58;;;;;;;9.82;3.80;;;15.00;99.90;;;;;;5013768;28;20044;-76
2021/07/02 01:53:23;;;;;;;10.90;3.88;;;15.00;99.90;;;;;;5014056;28;20026;-76
2021/07/02 01:55:49;;;;;;;10.45;4.30;;;14.90;99.90;;;;;;5013625;28;20395;-76
2021/07/02 01:58:15;;;;;;;7.55;3.22;;;14.90;99.90;;;;;;5013936;28;20146;-76
2021/07/02 02:00:41;;;;;;;13.10;4.55;;;14.90;99.90;;;;;;4995885;28;20116;-76
2021/07/02 02:03:07;;;;;;;12.88;4.45;;;14.90;99.90;;;;;;4996380;28;20036;-77
2021/07/02 02:05:32;;;;;;;12.63;3.97;;;14.90;99.90;;;;;;4995293;28;20112;-76
2021/07/02 02:07:58;;;;;;;12.52;4.28;;;14.90;99.90;;;;;;4995956;28;20371;-76
2021/07/02 02:10:24;;;;;;;13.98;4.07;;;14.90;99.90;;;;;;5014215;28;20034;-76
2021/07/02 02:12:49;;;;;;;11.93;4.00;;;14.90;99.90;;;;;;5013535;28;20029;-76
2021/07/02 02:15:15;;;;;;;14.00;4.32;;;14.90;99.90;;;;;;5013483;28;20105;-76
2021/07/02 02:17:42;;;;;;;12.05;3.45;;;14.90;99.90;;;;;;5013452;28;20022;-76
2021/07/02 02:20:10;;;;;;;12.02;4.63;;;14.90;99.90;;;;;;4995713;28;20495;-76
2021/07/02 02:22:35;;;;;;;10.85;3.90;;;15.00;99.90;;;;;;5013364;28;20018;-76
2021/07/02 02:25:01;;;;;;;10.30;4.18;;;15.00;99.90;;;;;;5013285;28;20037;-76
2021/07/02 02:27:27;;;;;;;10.43;4.07;;;15.00;99.90;;;;;;4995743;28;20041;-76
2021/07/02 02:29:53;;;;;;;9.13;3.40;;;14.90;99.90;;;;;;5013629;28;20364;-76
2021/07/02 02:32:19;;;;;;;12.10;3.22;;;14.90;99.90;;;;;;4995708;28;20121;-76
2021/07/02 02:34:45;;;;;;;13.90;4.28;;;14.90;99.90;;;;;;4995725;28;20022;-76
2021/07/02 02:37:10;;;;;;;12.93;4.05;;;14.90;99.90;;;;;;4995707;28;20112;-76
2021/07/02 02:39:39;;;;;;;8.35;3.30;;;14.90;99.90;;;;;;5013179;28;20029;-76
2021/07/02 02:42:05;;;;;;;;;;;14.90;99.90;;;;;;4996032;28;20042;-76
2021/07/02 02:44:31;;;;;;;10.82;3.67;;;14.90;99.90;;;;;;4995559;28;19939;-76
2021/07/02 02:46:56;;;;;;;10.43;3.60;;;15.00;99.90;;;;;;5013726;28;20526;-76
2021/07/02 02:49:22;;;;;;;9.82;3.78;;;15.00;99.90;;;;;;4995550;28;20017;-76
2021/07/02 02:51:48;;;;;;;9.30;3.03;;;15.00;99.90;;;;;;4995678;28;20530;-76
2021/07/02 02:54:13;;;;;;;10.57;3.38;;;14.90;99.90;;;;;;4995653;28;20030;-76
2021/07/02 02:59:23;;;;;;;13.85;4.25;;;14.90;99.90;;;;;;5013517;28;20088;-76
2021/07/02 03:01:49;;;;;;;12.57;4.05;;;15.00;99.90;;;;;;4995700;28;20034;-76
2021/07/02 03:04:14;;;;;;;19.42;4.45;;;14.90;99.90;;;;;;5013309;28;20434;-76
2021/07/02 03:06:40;;;;;;;7.90;3.58;;;15.00;99.90;;;;;;5013204;28;20113;-76
2021/07/02 03:09:05;;;;;;;10.75;4.43;;;15.00;99.90;;;;;;5013146;28;20033;-76
2021/07/02 03:11:31;;;;;;;11.27;3.10;;;15.00;99.90;;;;;;4995623;28;20080;-77
2021/07/02 03:13:56;;;;;;;10.60;4.10;;;14.90;99.90;;;;;;4995831;28;20109;-77
2021/07/02 03:16:22;;;;;;;14.90;5.00;;;14.90;99.90;;;;;;5015000;28;20029;-77
2021/07/02 03:18:50;;;;;;;13.55;4.25;;;14.90;99.90;;;;;;5017472;28;20418;-77
2021/07/02 03:21:16;;;;;;;12.30;4.55;;;14.90;99.90;;;;;;5016886;28;20026;-77
2021/07/02 03:23:42;;;;;;;14.48;3.90;;;14.90;99.90;;;;;;5017022;28;20045;-77
2021/07/02 03:26:07;;;;;;;11.30;3.92;;;14.90;99.90;;;;;;5016652;28;20092;-77
2021/07/02 03:28:35;;;;;;;11.57;4.97;;;14.90;99.90;;;;;;5017471;28;20052;-77
2021/07/02 03:31:01;;;;;;;15.68;4.35;;;14.90;99.90;;;;;;5016840;28;20109;-77
2021/07/02 03:33:27;;;;;;;9.82;4.15;;;14.90;99.90;;;;;;5017051;28;20114;-77
2021/07/02 03:35:52;;;;;;;8.32;3.97;;;14.90;99.90;;;;;;4999099;28;20062;-77
2021/07/02 03:38:18;;;;;;;13.57;4.85;;;14.90;99.90;;;;;;5016937;28;20430;-77
2021/07/02 03:40:44;;;;;;;13.23;4.93;;;14.90;99.90;;;;;;5016503;28;20037;-77
2021/07/02 03:43:09;;;;;;;14.52;5.03;;;14.90;99.90;;;;;;5016621;28;20018;-77
2021/07/02 03:45:35;;;;;;;16.45;5.20;;;15.00;99.90;;;;;;5016612;28;20026;-77
2021/07/02 03:48:00;;;;;;;14.02;4.75;;;15.00;99.90;;;;;;5016113;28;20041;-77
2021/07/02 03:50:26;;;;;;;15.20;4.70;;;15.00;99.90;;;;;;4998839;28;20057;-77
2021/07/02 03:52:51;;;;;;;16.02;4.95;;;14.90;99.90;;;;;;5016197;28;20064;-77
2021/07/02 03:55:17;;;;;;;15.82;5.97;;;14.90;99.90;;;;;;5016216;28;20092;-77
2021/07/02 03:57:43;;;;;;;17.48;6.32;;;14.90;99.90;;;;;;5016540;28;20022;-77
2021/07/02 04:00:09;;;;;;;16.13;4.75;;;14.90;99.90;;;;;;4998663;28;20037;-77
2021/07/02 04:02:34;;;;;;;10.52;4.15;;;14.90;99.90;;;;;;5016632;28;20061;-77
2021/07/02 04:05:00;;;;;;;14.43;3.55;;;14.90;99.90;;;;;;4998669;28;20049;-77
2021/07/02 04:07:26;;;;;;;12.60;4.50;;;15.00;99.90;;;;;;4998541;28;20454;-77
2021/07/02 04:09:51;;;;;;;18.20;5.30;;;15.00;99.90;;;;;;5016011;28;20058;-77
2021/07/02 04:12:17;;;;;;;10.85;3.95;;;15.00;99.90;;;;;;4998429;28;20022;-77
2021/07/02 04:14:45;;;;;;;17.05;4.45;;;15.00;99.90;;;;;;5016169;28;20430;-77
2021/07/02 04:17:11;;;;;;;18.85;4.50;;;14.90;99.90;;;;;;4998254;28;20014;-77
2021/07/02 04:19:37;;;;;;;11.18;4.38;;;15.00;99.90;;;;;;5015744;28;20021;-77
2021/07/02 04:22:04;;;;;;;13.85;4.18;;;15.00;99.90;;;;;;5015990;28;20080;-77
2021/07/02 04:24:29;;;;;;;12.05;4.20;;;15.00;99.90;;;;;;4997977;28;20479;-77
2021/07/02 04:26:55;;;;;;;12.82;4.88;;;15.00;99.90;;;;;;5015536;28;20104;-77
2021/07/02 04:29:21;;;;;;;12.52;4.22;;;15.00;99.90;;;;;;5015015;28;20110;-77
2021/07/02 04:31:49;;;;;;;11.75;4.03;;;15.00;99.90;;;;;;4998130;28;20525;-77
2021/07/02 04:34:15;;;;;;;11.25;4.68;;;15.10;99.90;;;;;;5015646;28;20117;-77
2021/07/02 04:36:41;;;;;;;12.02;4.13;;;15.10;99.90;;;;;;5015550;28;20463;-77
2021/07/02 04:39:07;;;;;;;11.27;4.40;;;15.00;99.90;;;;;;4997753;28;20117;-77
2021/07/02 04:41:32;;;;;;;11.70;4.78;;;15.00;99.90;;;;;;4997845;28;20541;-77
2021/07/02 04:43:58;;;;;;;11.25;4.13;;;15.10;99.90;;;;;;5015552;28;20022;-77
2021/07/02 04:46:23;;;;;;;11.68;3.88;;;15.10;99.90;;;;;;5015453;28;20037;-77
2021/07/02 04:48:49;;;;;;;11.52;4.20;;;15.10;99.90;;;;;;4997806;28;20025;-77
2021/07/02 04:51:15;;;;;;;15.93;4.90;;;15.10;99.90;;;;;;4997667;28;20025;-77
2021/07/02 04:53:42;;;;;;;11.25;4.15;;;15.10;99.90;;;;;;5015120;28;20080;-77
2021/07/02 04:56:11;;;;;;;11.93;4.82;;;15.10;99.90;;;;;;5015459;28;20105;-77
2021/07/02 04:58:37;;;;;;;;;;;15.10;99.90;;;;;;4997819;28;20391;-77
2021/07/02 05:01:02;;;;;;;12.43;4.60;;;15.10;99.90;;;;;;4997256;28;19909;-77
2021/07/02 05:03:28;;;;;;;15.68;4.47;;;15.10;99.90;;;;;;5014976;28;20026;-77
2021/07/02 05:05:54;;;;;;;15.82;5.15;;;15.20;99.90;;;;;;5015089;28;20475;-77
2021/07/02 05:08:20;;;;;;;14.05;5.22;;;15.20;99.90;;;;;;5014994;28;20022;-77
2021/07/02 05:10:46;;;;;;;10.25;3.78;;;15.10;99.90;;;;;;4997043;28;20030;-77
2021/07/02 05:13:11;;;;;;;10.48;3.67;;;15.20;99.90;;;;;;4997090;28;20101;-76
2021/07/02 05:15:40;;;;;;;11.77;4.60;;;15.30;99.90;;;;;;5014983;28;20084;-77
2021/07/02 05:18:06;;;;;;;14.45;4.05;;;15.20;99.90;;;;;;5014484;28;20102;-77
2021/07/02 05:20:31;;;;;;;12.68;4.18;;;15.20;99.90;;;;;;5014138;28;20041;-77
2021/07/02 05:22:57;;;;;;;11.70;5.15;;;15.40;99.90;;;;;;5014798;28;20058;-77
2021/07/02 05:25:22;;;;;;;11.23;4.10;;;15.30;99.90;;;;;;5014044;28;20065;-78
2021/07/02 05:27:48;;;;;;;11.48;4.43;;;15.30;99.90;;;;;;5014758;28;20022;-77
2021/07/02 05:30:14;;;;;;;11.43;4.10;;;15.20;99.90;;;;;;4996986;28;20526;-77
2021/07/02 05:32:40;;;;;;;12.98;4.72;;;15.30;99.90;;;;;;4996734;28;20026;-78
2021/07/02 05:35:08;;;;;;;16.35;5.45;;;15.30;99.90;;;;;;5014841;28;20101;-75
2021/07/02 05:37:34;;;;;;;17.02;5.55;;;15.20;99.90;;;;;;5014662;28;20109;-75
2021/07/02 05:40:00;;;;;;;10.80;4.38;;;15.20;99.90;;;;;;5013888;28;20033;-75
2021/07/02 05:42:25;;;;;;;15.55;6.15;;;15.20;99.90;;;;;;5014252;28;20088;-74
2021/07/02 05:44:51;;;;;;;12.68;5.25;;;15.20;99.90;;;;;;5014558;28;20536;-74
2021/07/02 05:47:17;;;;;;;16.02;5.00;;;15.20;99.90;;;;;;5014420;28;20072;-74
2021/07/02 05:49:43;;;;;;;16.70;5.88;;;15.20;99.90;;;;;;4996666;28;20026;-74
2021/07/02 05:52:09;;;;;;;11.23;4.85;;;15.30;99.90;;;;;;5014302;28;20109;-75
2021/07/02 05:54:35;;;;;;;14.32;5.85;;;15.30;99.90;;;;;;5014185;28;20100;-75
2021/07/02 05:57:00;;;;;;;16.20;6.13;;;15.30;99.90;;;;;;5014428;28;20060;-76
2021/07/02 05:59:26;;;;;;;15.57;5.30;;;15.30;99.90;;;;;;4996774;28;20029;-78
2021/07/02 06:01:51;;;;;;;14.00;5.57;;;15.30;99.90;;;;;;4996959;28;20098;-77
2021/07/02 06:04:17;;;;;;;17.05;5.68;;;15.30;99.90;;;;;;4996850;28;20483;-77
2021/07/02 06:06:42;;;;;;;17.52;7.03;;;15.40;99.90;;;;;;4996530;28;20036;-77
2021/07/02 06:09:08;;;;;;;16.48;6.20;;;15.40;99.90;;;;;;5014346;28;20022;-75
2021/07/02 06:11:33;;;;;;;16.58;5.53;;;15.40;99.90;;;;;;4995993;28;20029;-75
2021/07/02 06:13:59;;;;;;;15.55;6.43;;;15.50;99.90;;;;;;5013450;28;20034;-75
2021/07/02 06:16:25;;;;;;;17.60;6.65;;;15.50;99.90;;;;;;4995967;28;20394;-78
2021/07/02 06:18:50;;;;;;;14.55;6.75;;;15.60;99.90;;;;;;5014584;28;20025;-77
2021/07/02 06:21:16;;;;;;;13.68;5.93;;;15.60;99.90;;;;;;5014147;28;20080;-77
2021/07/02 06:23:42;;;;;;;16.08;6.38;;;15.70;99.90;;;;;;4996281;28;20434;-77
2021/07/02 06:26:08;;;;;;;11.77;5.63;;;15.70;99.90;;;;;;5013538;28;20030;-77
2021/07/02 06:28:34;;;;;;;16.08;5.60;;;15.70;99.90;;;;;;5013892;28;20026;-77
2021/07/02 06:31:00;;;;;;;12.82;5.60;;;16.30;99.90;;;;;;4996096;28;20030;-77
2021/07/02 06:33:26;;;;;;;15.38;6.28;;;15.80;99.90;;;;;;5013891;28;20056;-77
2021/07/02 06:35:52;;;;;;;19.05;6.95;;;15.90;99.90;;;;;;5013894;28;20025;-77
2021/07/02 06:38:21;;;;;;;14.00;5.30;;;15.90;99.90;;;;;;5013648;28;20026;-76
2021/07/02 06:40:48;;;;;;;18.00;7.13;;;15.90;99.90;;;;;;4996252;28;20022;-77
2021/07/02 06:43:14;;;;;;;12.07;5.93;;;16.00;99.90;;;;;;4995914;28;20062;-77
2021/07/02 06:45:40;;;;;;;16.15;5.55;;;16.00;99.90;;;;;;5014189;28;20033;-77
2021/07/02 06:48:06;;;;;;;16.60;6.28;;;16.00;99.90;;;;;;5013500;28;20014;-77
2021/07/02 06:50:34;;;;;;;16.92;6.43;;;16.10;99.90;;;;;;4996038;28;20076;-76
2021/07/02 06:53:01;;;;;;;13.90;6.20;;;16.10;99.90;;;;;;5000194;28;20022;-76
2021/07/02 06:55:27;;;;;;;15.48;6.60;;;16.20;99.90;;;;;;5017146;28;20681;-76
2021/07/02 06:57:54;;;;;;;20.27;6.05;;;16.30;99.90;;;;;;5002131;28;20480;-77
2021/07/02 07:00:20;;;;;;;12.90;5.75;;;16.30;99.90;;;;;;4984427;28;20065;-77
2021/07/02 07:02:47;;;;;;;15.82;6.25;;;16.40;99.90;;;;;;5010870;28;20025;-77
2021/07/02 07:05:14;;;;;;;17.63;6.00;;;16.40;99.90;;;;;;5009291;28;20103;-77
2021/07/02 07:07:40;;;;;;;13.73;6.20;;;16.40;99.90;;;;;;5016877;28;20507;-77
2021/07/02 07:10:06;;;;;;;13.25;6.28;;;16.40;99.90;;;;;;5016891;28;20029;-76
2021/07/02 07:12:32;;;;;;;14.13;5.47;;;16.40;99.90;;;;;;5016741;28;20034;-77
2021/07/02 07:14:58;;;;;;;19.05;5.88;;;16.40;99.90;;;;;;4999694;28;20029;-77
2021/07/02 07:17:24;;;;;;;15.77;6.35;;;16.30;99.90;;;;;;4999292;28;20046;-76
2021/07/02 07:19:50;;;;;;;12.70;5.40;;;16.30;99.90;;;;;;4999330;28;20033;-77
2021/07/02 07:22:16;;;;;;;10.20;4.72;;;16.30;99.90;;;;;;5017025;28;20450;-77
2021/07/02 07:24:41;;;;;;;12.27;5.63;;;16.30;99.90;;;;;;5016967;28;20064;-77
2021/07/02 07:27:07;;;;;;;11.23;5.68;;;16.30;99.90;;;;;;5017178;28;20022;-77
2021/07/02 07:29:33;;;;;;;12.88;5.38;;;16.30;99.90;;;;;;5016852;28;20022;-77
2021/07/02 07:32:00;;;;;;;16.15;6.50;;;16.30;99.90;;;;;;4999101;28;20454;-76
2021/07/02 07:34:37;;;;;;;11.13;5.40;;;16.40;99.90;;;;;;4999161;28;20022;-76
2021/07/02 07:37:09;;;;;;;15.35;6.38;;;16.30;99.90;;;;;;5017130;28;20032;-77
2021/07/02 07:39:35;;;;;;;15.77;6.00;;;16.30;99.90;;;;;;4999184;28;20053;-77
2021/07/02 07:42:00;;;;;;;12.88;6.00;;;16.30;99.90;;;;;;5016486;28;20049;-76
2021/07/02 07:44:26;;;;;;;13.35;5.50;;;16.30;99.90;;;;;;5016630;28;20030;-77
2021/07/02 07:46:52;;;;;;;16.83;6.32;;;16.30;99.90;;;;;;5017019;28;20026;-77
2021/07/02 07:49:17;;;;;;;21.08;7.25;;;16.30;99.90;;;;;;5016076;28;20049;-77
2021/07/02 07:51:58;;;;;;;15.43;6.07;;;16.30;99.90;;;;;;5016655;28;20113;-77
2021/07/02 07:54:25;;;;;;;14.68;6.40;;;16.40;99.90;;;;;;4998830;28;20398;-77
2021/07/02 07:56:50;;;;;;;12.65;6.43;;;16.40;99.90;;;;;;4998838;28;20061;-77
2021/07/02 07:59:21;;;;;;;14.93;6.07;;;16.80;99.90;;;;;;4998668;28;20127;-77
2021/07/02 08:01:47;;;;;;;15.48;6.88;;;16.60;99.90;;;;;;5015773;28;20065;-76
2021/07/02 08:04:14;;;;;;;13.50;6.03;;;16.60;99.90;;;;;;5015552;28;20022;-77
2021/07/02 08:06:44;;;;;;;15.10;7.20;;;16.60;99.90;;;;;;4998490;28;20022;-77
2021/07/02 08:09:11;;;;;;;14.80;6.97;;;16.60;99.90;;;;;;5016574;28;20113;-77
2021/07/02 08:11:38;;;;;;;16.75;6.95;;;16.60;99.90;;;;;;4998354;28;20057;-76
2021/07/02 08:14:05;;;;;;;16.88;7.47;;;16.60;99.90;;;;;;4998124;28;20045;-77
2021/07/02 08:16:31;;;;;;;16.67;6.72;;;16.50;99.90;;;;;;5015788;28;20030;-77
2021/07/02 08:18:57;;;;;;;16.42;6.90;;;16.50;99.90;;;;;;5015909;28;20076;-77
2021/07/02 08:21:23;;;;;;;11.43;6.03;;;16.40;99.90;;;;;;5016058;28;20061;-76
2021/07/02 08:23:48;;;;;;;10.43;5.57;;;16.40;99.90;;;;;;5015901;28;20094;-77
2021/07/02 08:26:15;;;;;;;11.65;6.38;;;16.50;99.90;;;;;;5006604;23;20501;-75
2021/07/02 08:31:25;;;;;;;9.77;5.15;;;16.70;99.90;;;;;;4996398;28;20553;-75
2021/07/02 08:33:51;;;;;;;10.52;5.00;;;16.70;99.90;;;;;;4995564;28;20026;-76
2021/07/02 08:36:16;;;;;;;13.65;5.85;;;16.70;99.90;;;;;;4995613;28;20392;-75
2021/07/02 08:38:42;;;;;;;11.43;5.00;;;16.80;99.90;;;;;;4995490;28;20106;-75
2021/07/02 08:41:12;;;;;;;10.57;4.50;;;16.80;99.90;;;;;;4995496;28;20026;-75
2021/07/02 08:43:42;;;;;;;9.85;4.30;;;16.90;99.90;;;;;;4996428;28;20486;-75
2021/07/02 08:46:12;;;;;;;8.20;3.47;;;16.90;99.90;;;;;;4977867;28;20019;-75
2021/07/02 08:48:39;;;;;;;9.10;4.50;;;16.90;99.90;;;;;;4977817;28;20368;-75
2021/07/02 08:51:06;;;;;;;10.23;4.85;;;16.90;99.90;;;;;;4995157;28;20029;-75
2021/07/02 08:53:32;;;;;;;12.10;5.80;;;16.90;99.90;;;;;;4995190;28;20026;-75
2021/07/02 08:55:59;;;;;;;11.15;5.10;;;17.00;99.90;;;;;;4995099;28;20026;-75
2021/07/02 08:58:25;;;;;;;11.85;5.28;;;17.00;99.90;;;;;;4977631;28;20030;-75
2021/07/02 09:00:51;;;;;;;10.27;4.57;;;17.10;99.90;;;;;;4995039;28;20030;-75
2021/07/02 09:03:31;;;;;;;11.80;4.55;;;17.10;99.90;;;;;;4994988;28;20038;-75
2021/07/02 09:06:13;;;;;;;7.97;4.03;;;17.10;99.90;;;;;;4995218;28;20022;-75
2021/07/02 09:08:40;;;;;;;9.95;3.92;;;17.10;99.90;;;;;;4994878;28;20491;-75
2021/07/02 09:11:26;;;;;;;6.28;3.78;;;17.20;99.90;;;;;;4995033;28;20050;-75
2021/07/02 09:13:52;;;;;;;9.00;3.95;;;17.20;99.90;;;;;;4977101;28;20031;-75
2021/07/02 09:16:36;;;;;;;8.50;3.72;;;17.30;99.90;;;;;;4994909;28;20056;-75
2021/07/02 09:19:22;;;;;;;6.60;3.15;;;17.20;99.90;;;;;;4994915;28;20377;-75
2021/07/02 09:21:49;;;;;;;7.90;3.08;;;17.10;99.90;;;;;;4994503;28;20027;-75
2021/07/02 09:24:43;;;;;;;7.93;3.40;;;17.20;99.90;;;;;;4995123;28;20035;-75
2021/07/02 09:27:37;;;;;;;7.50;3.13;;;17.20;99.90;;;;;;4994984;28;20111;-75
2021/07/02 09:30:04;;;;;;;7.60;3.30;;;17.20;99.90;;;;;;4977015;28;20014;-75
2021/07/02 09:32:31;;;;;;;7.35;3.28;;;17.20;99.90;;;;;;4977353;28;20395;-75
2021/07/02 09:34:59;;;;;;;7.00;3.15;;;17.30;99.90;;;;;;4994560;28;20049;-75
2021/07/02 09:37:28;;;;;;;6.80;3.10;;;17.20;99.90;;;;;;4994408;28;20014;-75
2021/07/02 09:39:53;;;;;;;9.65;4.15;;;17.20;99.90;;;;;;4994104;28;20018;-75
2021/07/02 09:42:27;;;;;;;8.75;4.05;;;17.20;99.90;;;;;;4976810;28;20567;-76
2021/07/02 09:45:16;;;;;;;9.00;3.97;;;17.20;99.90;;;;;;4994771;28;20027;-75
2021/07/02 09:47:44;;;;;;;8.90;4.28;;;17.20;99.90;;;;;;4994284;28;20018;-75
2021/07/02 09:50:17;;;;;;;9.65;3.95;;;17.20;99.90;;;;;;4994092;28;20022;-75
2021/07/02 09:53:01;;;;;;;12.00;4.88;;;17.20;99.90;;;;;;4976709;28;20022;-75
2021/07/02 09:55:28;;;;;;;9.25;4.68;;;17.30;99.90;;;;;;4994138;28;20053;-75
2021/07/02 09:58:05;;;;;;;8.85;4.80;;;17.30;99.90;;;;;;4994106;28;20045;-75
2021/07/02 10:00:33;;;;;;;8.13;4.28;;;17.40;99.90;;;;;;4993810;28;20030;-75
2021/07/02 10:03:00;;;;;;;9.65;4.82;;;17.30;99.90;;;;;;4994068;28;20010;-75
2021/07/02 10:05:26;;;;;;;11.48;5.35;;;17.30;99.90;;;;;;4994013;28;20018;-75
2021/07/02 10:08:00;;;;;;;11.45;5.00;;;17.30;99.90;;;;;;4976598;28;20547;-75
2021/07/02 10:10:27;;;;;;;9.55;5.18;;;17.20;99.90;;;;;;4976406;28;20026;-75
2021/07/02 10:12:55;;;;;;;12.77;5.45;;;17.30;99.90;;;;;;4976418;28;20058;-75
2021/07/02 10:15:21;;;;;;;8.95;4.63;;;17.40;99.90;;;;;;4993837;28;20038;-75
2021/07/02 10:17:48;;;;;;;12.05;5.35;;;17.60;99.90;;;;;;4976471;28;20064;-75
2021/07/02 10:20:15;;;;;;;10.23;5.90;;;17.70;99.90;;;;;;4976250;28;20034;-75
2021/07/02 10:22:42;;;;;;;12.00;5.70;;;17.90;99.90;;;;;;4993874;28;20034;-75
2021/07/02 10:25:10;;;;;;;13.50;5.18;;;18.00;99.90;;;;;;4993782;28;20112;-75
2021/07/02 10:27:38;;;;;;;9.30;4.70;;;18.10;99.90;;;;;;4980079;28;20041;-75
2021/07/02 10:30:05;;;;;;;9.77;4.82;;;18.10;99.90;;;;;;4997727;28;20049;-75
2021/07/02 10:32:32;;;;;;;6.13;3.13;;;18.20;99.90;;;;;;4997949;28;20034;-75
2021/07/02 10:34:58;;;;;;;8.40;2.92;;;18.40;99.90;;;;;;4997691;28;20019;-75
2021/07/02 10:37:25;;;;;;;5.32;2.53;;;18.70;99.90;;;;;;4997712;28;20065;-75
2021/07/02 10:39:51;;;;;;;7.15;3.00;;;18.90;99.90;;;;;;4980163;28;20031;-75
2021/07/02 10:42:16;;;;;;;11.63;5.28;;;18.90;99.90;;;;;;4980114;28;20432;-75
2021/07/02 10:44:55;;;;;;;14.02;6.47;;;19.00;99.90;;;;;;4997585;28;20023;-74
2021/07/02 10:47:21;;;;;;;;;;;19.30;99.90;;;;;;4998219;28;20045;-75
2021/07/02 10:49:48;;;;;;;20.05;7.65;;;19.70;99.90;;;;;;4979906;28;20322;-75
2021/07/02 10:52:28;;;;;;;12.00;6.63;;;19.90;99.90;;;;;;4997409;28;20028;-75
2021/07/02 10:54:55;;;;;;;13.45;6.72;;;20.30;99.90;;;;;;4997360;28;20057;-75
2021/07/02 10:57:22;;;;;;;12.38;5.80;;;20.40;99.90;;;;;;4997479;28;20062;-75
2021/07/02 10:59:54;;;;;;;10.52;4.75;;;20.40;99.90;;;;;;4997112;28;20101;-75
2021/07/02 11:02:25;;;;;;;10.50;4.80;;;20.70;99.90;;;;;;4979873;28;20092;-75
2021/07/02 11:04:53;;;;;;;14.48;5.18;;;20.50;99.90;;;;;;4997298;28;20058;-75
2021/07/02 11:07:19;;;;;;;10.15;5.00;;;20.50;99.90;;;;;;4979701;28;20022;-74
2021/07/02 11:09:54;;;;;;;8.88;4.35;;;20.30;99.90;;;;;;4996970;28;20029;-75
2021/07/02 11:12:34;;;;;;;10.52;5.47;;;20.50;99.90;;;;;;4997630;28;20027;-77
2021/07/02 11:15:03;;;;;;;9.57;5.45;;;20.60;99.90;;;;;;4997648;28;20439;-77
2021/07/02 11:17:30;;;;;;;8.35;4.97;;;20.60;99.90;;;;;;4998022;28;20101;-77
2021/07/02 11:20:05;;;;;;;13.30;6.03;;;20.70;99.90;;;;;;4997754;28;20517;-76
2021/07/02 11:22:34;;;;;;;11.45;5.30;;;20.50;99.90;;;;;;4997784;28;20030;-77
2021/07/02 11:25:13;;;;;;;9.65;4.60;;;20.40;99.90;;;;;;4997825;28;20030;-77
2021/07/02 11:27:45;;;;;;;10.40;4.55;;;20.20;99.90;;;;;;4997712;28;20049;-77
2021/07/02 11:30:36;;;;;;;12.23;5.28;;;20.00;99.90;;;;;;4979983;28;20435;-77
2021/07/02 11:33:07;;;;;;;10.32;4.72;;;19.80;99.90;;;;;;4998084;28;20022;-77
2021/07/02 11:35:40;;;;;;;11.45;6.07;;;19.70;99.90;;;;;;4980655;28;20022;-77
2021/07/02 11:38:25;;;;;;;10.88;5.35;;;19.70;99.90;;;;;;4980290;28;20058;-77
2021/07/02 11:40:59;;;;;;;8.93;4.53;;;19.80;99.90;;;;;;4980082;28;20022;-77
2021/07/02 11:43:41;;;;;;;11.93;4.75;;;19.90;99.90;;;;;;4997798;28;20077;-77
2021/07/02 11:46:13;;;;;;;13.30;5.32;;;20.30;99.90;;;;;;4997878;28;20027;-77
2021/07/02 11:48:49;;;;;;;11.98;4.43;;;20.50;99.90;;;;;;4997734;28;20053;-77
2021/07/02 11:51:22;;;;;;;9.60;4.38;;;20.70;99.90;;;;;;4980222;28;20028;-77
2021/07/02 11:53:56;;;;;;;11.55;4.63;;;20.80;99.90;;;;;;4997704;28;20026;-77
2021/07/02 11:56:33;;;;;;;9.05;4.45;;;21.10;99.90;;;;;;4980157;28;20510;-77
2021/07/02 11:59:07;;;;;;;9.93;3.80;;;21.20;99.90;;;;;;4979899;28;20488;-77
2021/07/02 12:01:38;;;;;;;6.50;3.10;;;21.50;99.90;;;;;;4980218;28;20053;-77
2021/07/02 12:04:11;;;;;;;7.68;3.78;;;21.70;99.90;;;;;;4996867;28;20022;-77
2021/07/02 12:06:43;;;;;;;9.70;4.10;;;21.70;99.90;;;;;;4996858;28;20553;-77
2021/07/02 12:09:26;;;;;;;7.57;3.40;;;21.80;99.90;;;;;;4996867;28;20050;-77
2021/07/02 12:12:00;;;;;;;9.38;2.88;;;21.80;99.90;;;;;;4979256;28;20113;-77
2021/07/02 12:14:35;;;;;;;6.68;3.30;;;21.80;99.90;;;;;;4979709;28;20030;-77
2021/07/02 12:17:02;;;;;;;7.97;3.70;;;22.10;99.90;;;;;;4996727;28;20043;-77
2021/07/02 12:19:41;;;;;;;5.75;3.05;;;22.50;99.90;;;;;;4979222;28;20121;-77
2021/07/02 12:22:12;;;;;;;7.05;3.72;;;23.20;99.90;;;;;;4996798;28;20050;-77
2021/07/02 12:24:43;;;;;;;8.60;3.50;;;23.80;99.90;;;;;;4996296;28;20046;-77
2021/07/02 12:27:14;;;;;;;5.85;2.92;;;24.50;99.90;;;;;;4996429;28;20026;-77
2021/07/02 12:29:43;;;;;;;5.75;2.80;;;24.50;99.90;;;;;;4997072;28;20483;-77
2021/07/02 12:32:11;;;;;;;7.13;2.97;;;24.10;99.90;;;;;;4979215;28;20030;-77
2021/07/02 12:34:43;;;;;;;5.25;2.42;;;23.50;99.90;;;;;;4996958;28;20030;-77
2021/07/02 12:37:09;;;;;;;3.78;1.92;;;23.00;99.90;;;;;;4978712;28;20037;-75
2021/07/02 12:39:40;;;;;;;5.53;2.67;;;22.60;99.90;;;;;;4995364;28;20033;-74
2021/07/02 12:42:19;;;;;;;6.47;2.47;;;22.30;99.90;;;;;;4977994;28;20027;-74
2021/07/02 12:44:49;;;;;;;4.20;1.52;;;22.50;99.90;;;;;;4979073;28;20486;-75
2021/07/02 12:47:16;;;;;;;5.63;1.20;;;22.60;99.90;;;;;;4995338;28;20022;-75
2021/07/02 12:49:46;;;;;;;2.95;1.25;;;22.70;99.90;;;;;;4977089;28;20026;-75